Time;durP1;ratioP1;P1;durP2;ratioP2;P2;SDS_P1;SDS_P2;PMS_P1;PMS_P2;Temp;Humidity;BMP_temperature;BMP_pressure;BME280_temperature;BME280_humidity;BME280_pressure;Samples;Min_cycle;Max_cycle;Signal;HPM_P1;HPM_P2
2023/12/29 00:35:06;;;;;;;0.10;0.10;;;;;;;;;;6311935;22;20034;-92
2023/12/29 00:37:37;;;;;;;0.38;0.30;;;;;;;;;;6323343;22;20027;-92
2023/12/29 00:40:29;;;;;;;0.60;0.20;;;;;;;;;;6326314;22;20035;-92
2023/12/29 00:43:14;;;;;;;0.20;0.20;;;;;;;;;;6321373;22;20020;-92
2023/12/29 00:46:09;;;;;;;0.00;0.00;;;;;;;;;;6329243;22;20030;-92
2023/12/29 00:48:57;;;;;;;0.75;0.70;;;;;;;;;;6326365;22;20364;-91
2023/12/29 01:02:56;;;;;;;0.10;0.10;;;;;;;;;;6336670;22;20019;-91
2023/12/29 01:25:08;;;;;;;0.00;0.00;;;;;;;;;;6318257;22;20019;-91
2023/12/29 01:27:45;;;;;;;1.98;0.68;;;;;;;;;;6320082;22;20018;-91
2023/12/29 01:33:06;;;;;;;0.10;0.10;;;;;;;;;;6330756;22;20083;-91
2023/12/29 01:35:37;;;;;;;0.03;0.03;;;;;;;;;;6322245;22;20061;-92
2023/12/29 01:55:57;;;;;;;0.10;0.10;;;;;;;;;;6277932;22;20227;-92
2023/12/29 01:58:30;;;;;;;1.35;0.15;;;;;;;;;;6264733;22;20026;-92
2023/12/29 02:14:44;;;;;;;0.10;0.10;;;;;;;;;;6286719;22;20019;-91
2023/12/29 02:17:26;;;;;;;0.75;0.20;;;;;;;;;;6316240;22;20023;-92
2023/12/29 02:20:23;;;;;;;0.10;0.10;;;;;;;;;;6283855;22;20027;-90
2023/12/29 02:51:22;;;;;;;0.75;0.75;;;;;;;;;;6314933;22;20011;-91
2023/12/29 02:56:36;;;;;;;0.10;0.10;;;;;;;;;;6328744;22;20023;-92
2023/12/29 03:05:37;;;;;;;0.55;0.32;;;;;;;;;;6328993;22;20026;-90
2023/12/29 03:08:12;;;;;;;0.38;0.30;;;;;;;;;;6306830;22;20042;-91
2023/12/29 03:16:17;;;;;;;;;;;;;;;;;;6275855;22;20046;-92
2023/12/29 03:18:57;;;;;;;1.27;0.28;;;;;;;;;;6266198;22;19955;-90
2023/12/29 03:21:41;;;;;;;0.28;0.20;;;;;;;;;;6262082;22;20130;-91
2023/12/29 03:26:49;;;;;;;0.10;0.10;;;;;;;;;;6347074;22;20018;-90
2023/12/29 03:29:21;;;;;;;0.63;0.10;;;;;;;;;;6324145;22;20025;-91
2023/12/29 03:32:18;;;;;;;0.15;0.15;;;;;;;;;;6288420;22;20367;-91
2023/12/29 03:35:09;;;;;;;0.08;0.08;;;;;;;;;;6252736;22;20050;-90
2023/12/29 03:37:47;;;;;;;0.00;0.00;;;;;;;;;;6298682;22;20011;-90
2023/12/29 03:51:19;;;;;;;0.10;0.10;;;;;;;;;;5810437;22;10471430;-91
2023/12/29 03:54:04;;;;;;;0.73;0.20;;;;;;;;;;6235485;23;20028;-92
2023/12/29 04:10:59;;;;;;;0.10;0.10;;;;;;;;;;6267851;22;20011;-92
2023/12/29 04:32:45;;;;;;;0.13;0.13;;;;;;;;;;6218176;22;20008;-91
2023/12/29 04:39:10;;;;;;;0.10;0.10;;;;;;;;;;6268091;22;20106;-90
2023/12/29 05:00:47;;;;;;;0.10;0.10;;;;;;;;;;6228890;22;20054;-91
2023/12/29 05:03:52;;;;;;;;;;;;;;;;;;;;;
2023/12/29 05:12:06;;;;;;;;;;;;;;;;;;;;;
2023/12/29 05:46:55;;;;;;;1.05;0.95;;;;;;;;;;6247009;22;20095;-91
2023/12/29 06:05:56;;;;;;;0.03;0.03;;;;;;;;;;6266496;22;20027;-91
2023/12/29 06:12:02;;;;;;;0.10;0.10;;;;;;;;;;6265586;23;20050;-90
2023/12/29 06:30:59;;;;;;;0.10;0.10;;;;;;;;;;6263759;22;20278;-91
2023/12/29 06:34:01;;;;;;;0.10;0.10;;;;;;;;;;6204263;23;20024;-91
2023/12/29 06:56:26;;;;;;;0.20;0.20;;;;;;;;;;6236379;22;20020;-90
2023/12/29 07:07:51;;;;;;;0.60;0.22;;;;;;;;;;6257907;23;20078;-92
2023/12/29 07:10:44;;;;;;;2.00;0.40;;;;;;;;;;6259830;23;20023;-92
2023/12/29 07:13:31;;;;;;;0.10;0.10;;;;;;;;;;6260829;23;20024;-91
2023/12/29 07:16:22;;;;;;;0.10;0.10;;;;;;;;;;6263964;23;20050;-91
2023/12/29 07:19:02;;;;;;;0.10;0.10;;;;;;;;;;6259686;23;20092;-91
2023/12/29 07:21:52;;;;;;;0.10;0.10;;;;;;;;;;6261132;23;20020;-90
2023/12/29 07:39:16;;;;;;;0.13;0.13;;;;;;;;;;5143983;27;20515;-89
2023/12/29 07:41:53;;;;;;;0.70;0.57;;;;;;;;;;5129208;28;20048;-90
2023/12/29 07:44:40;;;;;;;0.63;0.20;;;;;;;;;;5127435;28;20058;-89
2023/12/29 07:47:12;;;;;;;0.30;0.30;;;;;;;;;;5127319;28;20051;-90
2023/12/29 07:50:11;;;;;;;0.80;0.55;;;;;;;;;;5128885;28;20096;-90
2023/12/29 07:53:01;;;;;;;0.10;0.10;;;;;;;;;;5123470;28;20095;-90
2023/12/29 07:55:55;;;;;;;0.10;0.10;;;;;;;;;;5125164;28;20054;-90
2023/12/29 07:59:12;;;;;;;2.65;0.93;;;;;;;;;;5123140;28;20035;-90
2023/12/29 08:01:37;;;;;;;2.30;0.70;;;;;;;;;;5122494;28;20054;-90
2023/12/29 08:04:20;;;;;;;0.35;0.15;;;;;;;;;;5128742;28;20044;-90
2023/12/29 08:07:04;;;;;;;0.80;0.20;;;;;;;;;;5117391;28;20054;-91
2023/12/29 08:09:53;;;;;;;0.10;0.10;;;;;;;;;;5123730;28;20032;-90
2023/12/29 08:12:43;;;;;;;0.03;0.03;;;;;;;;;;5123020;28;20036;-91
2023/12/29 08:15:36;;;;;;;0.10;0.10;;;;;;;;;;5122396;28;20048;-91
2023/12/29 08:19:15;;;;;;;0.15;0.15;;;;;;;;;;5127308;28;20068;-91
2023/12/29 08:21:39;;;;;;;0.20;0.20;;;;;;;;;;5120273;28;20043;-91
2023/12/29 08:24:21;;;;;;;0.70;0.20;;;;;;;;;;5123364;28;20032;-91
2023/12/29 08:27:08;;;;;;;0.00;0.00;;;;;;;;;;5091425;28;20381;-92
2023/12/29 08:52:14;;;;;;;0.85;0.38;;;;;;;;;;5017051;28;20027;-91
2023/12/29 08:54:58;;;;;;;0.10;0.10;;;;;;;;;;5013904;28;20042;-90
2023/12/29 08:57:58;;;;;;;0.55;0.25;;;;;;;;;;4998830;28;20061;-89
2023/12/29 09:01:20;;;;;;;0.10;0.10;;;;;;;;;;5013830;28;20217;-91
2023/12/29 09:04:20;;;;;;;;;;;;;;;;;;;;;
2023/12/29 09:36:41;;;;;;;4.20;1.75;;;;;;;;;;1041289;23;20216;31
2023/12/29 09:39:24;;;;;;;;;;;;;;;;;;4976936;28;20058;-90
2023/12/29 09:42:13;;;;;;;0.17;0.17;;;;;;;;;;4976889;28;19917;-90
2023/12/29 09:45:11;;;;;;;0.00;0.00;;;;;;;;;;4974499;28;20152;-90
2023/12/29 09:48:06;;;;;;;;;;;;;;;;;;;;;
2023/12/29 09:50:52;;;;;;;0.10;0.10;;;;;;;;;;5125849;23;20094;-91
2023/12/29 09:53:44;;;;;;;0.00;0.00;;;;;;;;;;4954977;29;20058;-91
2023/12/29 09:56:29;;;;;;;0.00;0.00;;;;;;;;;;4955609;29;20055;-91
2023/12/29 09:59:14;;;;;;;0.08;0.08;;;;;;;;;;4951823;29;20119;-91
2023/12/29 10:02:04;;;;;;;0.13;0.13;;;;;;;;;;4952601;29;20047;-91
2023/12/29 10:04:49;;;;;;;0.13;0.13;;;;;;;;;;4951849;29;20062;-90
2023/12/29 10:08:05;;;;;;;0.63;0.50;;;;;;;;;;4952782;29;20097;-91
2023/12/29 10:10:54;;;;;;;0.20;0.20;;;;;;;;;;4969838;29;20045;-91
2023/12/29 10:13:39;;;;;;;0.95;0.20;;;;;;;;;;5052656;23;20063;-89
2023/12/29 10:22:52;;;;;;;0.77;0.30;;;;;;;;;;5959216;23;20050;-90
2023/12/29 10:25:32;;;;;;;1.52;0.82;;;;;;;;;;4994716;28;20065;-90
2023/12/29 10:28:06;;;;;;;0.30;0.30;;;;;;;;;;4979014;28;20069;-91
2023/12/29 10:30:38;;;;;;;0.10;0.10;;;;;;;;;;4979456;28;20477;-92
2023/12/29 10:33:21;;;;;;;0.10;0.10;;;;;;;;;;4977435;28;20062;-91
2023/12/29 10:36:06;;;;;;;0.30;0.30;;;;;;;;;;4978653;28;20246;-91
2023/12/29 10:39:09;;;;;;;1.75;1.20;;;;;;;;;;4962185;29;20119;-90
2023/12/29 10:41:57;;;;;;;0.10;0.10;;;;;;;;;;4947496;29;20062;-91
2023/12/29 10:44:37;;;;;;;0.10;0.10;;;;;;;;;;4964857;29;20052;-92
2023/12/29 10:47:34;;;;;;;;;;;;;;;;;;;;;
2023/12/29 10:50:38;;;;;;;0.10;0.10;;;;;;;;;;4950290;29;20163;-91
2023/12/29 10:53:49;;;;;;;0.15;0.15;;;;;;;;;;4972158;28;20050;-90
2023/12/29 10:56:43;;;;;;;0.10;0.10;;;;;;;;;;4953919;28;20114;-90
2023/12/29 10:59:32;;;;;;;0.10;0.10;;;;;;;;;;4937243;29;20054;-91
2023/12/29 11:05:11;;;;;;;5.30;5.03;;;;;;;;;;5735244;23;20089;-91
2023/12/29 11:07:58;;;;;;;0.10;0.10;;;;;;;;;;4987697;28;20546;-90
2023/12/29 11:10:49;;;;;;;0.10;0.10;;;;;;;;;;5200580;23;20066;-91
2023/12/29 11:13:44;;;;;;;0.10;0.10;;;;;;;;;;4986764;28;20133;-91
2023/12/29 11:16:51;;;;;;;0.00;0.00;;;;;;;;;;4974676;28;20054;-91
2023/12/29 11:19:36;;;;;;;0.00;0.00;;;;;;;;;;4969219;28;20046;-91
2023/12/29 11:22:32;;;;;;;0.10;0.10;;;;;;;;;;4969843;28;20055;-91
2023/12/29 11:25:15;;;;;;;2.53;2.33;;;;;;;;;;4968448;28;20055;-91
2023/12/29 11:28:17;;;;;;;0.00;0.00;;;;;;;;;;4969719;28;20047;-89
2023/12/29 11:31:11;;;;;;;0.15;0.15;;;;;;;;;;4959629;28;20038;-90
2023/12/29 11:34:25;;;;;;;0.00;0.00;;;;;;;;;;4973664;28;20035;-91
2023/12/29 11:37:57;;;;;;;0.00;0.00;;;;;;;;;;4992325;28;20062;-91
2023/12/29 11:40:59;;;;;;;0.10;0.10;;;;;;;;;;4990357;28;20062;-91
2023/12/29 11:44:28;;;;;;;0.65;0.65;;;;;;;;;;4992035;28;20046;-91
2023/12/29 11:47:29;;;;;;;0.10;0.10;;;;;;;;;;4992365;28;20070;-91
2023/12/29 11:50:41;;;;;;;0.52;0.20;;;;;;;;;;4985804;28;20054;-92
2023/12/29 11:53:31;;;;;;;0.00;0.00;;;;;;;;;;4981493;28;20047;-92
2023/12/29 11:56:19;;;;;;;0.28;0.13;;;;;;;;;;4991865;28;20078;-92
2023/12/29 11:59:29;;;;;;;0.08;0.08;;;;;;;;;;4991810;28;20311;-92
2023/12/29 13:23:05;;;;;;;0.10;0.10;;;;;;;;;;5283742;23;20058;-90
2023/12/29 13:26:16;;;;;;;;;;;;;;;;;;;;;
2023/12/29 13:29:44;;;;;;;0.10;0.10;;;;;;;;;;5059224;23;20043;31
2023/12/29 13:35:37;;;;;;;0.43;0.20;;;;;;;;;;5045328;23;20039;-91
2023/12/29 14:15:33;;;;;;;3.25;2.65;;;;;;;;;;5095818;23;20104;-90
2023/12/29 14:21:46;;;;;;;3.65;2.72;;;;;;;;;;4994468;28;20112;-91
2023/12/29 14:24:36;;;;;;;0.20;0.20;;;;;;;;;;4970166;28;20121;-90
2023/12/29 14:30:52;;;;;;;0.10;0.10;;;;;;;;;;4949129;28;20063;-91
2023/12/29 14:37:02;;;;;;;0.10;0.10;;;;;;;;;;4951328;28;20159;-91
2023/12/29 14:40:10;;;;;;;0.10;0.10;;;;;;;;;;4921410;28;20532;-90
2023/12/29 14:43:03;;;;;;;0.10;0.10;;;;;;;;;;4973603;28;20030;-90
2023/12/29 15:09:03;;;;;;;0.10;0.10;;;;;;;;;;4961196;28;20248;-88
2023/12/29 15:22:01;;;;;;;0.00;0.00;;;;;;;;;;4962477;28;20066;-89
2023/12/29 15:24:32;;;;;;;0.10;0.10;;;;;;;;;;4942062;29;20172;-89
2023/12/29 15:27:13;;;;;;;0.10;0.10;;;;;;;;;;4943475;29;20096;-89
2023/12/29 15:29:56;;;;;;;0.10;0.10;;;;;;;;;;4892981;29;20084;-89
2023/12/29 15:32:40;;;;;;;0.10;0.10;;;;;;;;;;4903442;29;20060;-88
2023/12/29 15:35:10;;;;;;;0.77;0.10;;;;;;;;;;4885385;29;20060;-89
2023/12/29 15:37:42;;;;;;;0.10;0.10;;;;;;;;;;4884721;29;20064;-89
2023/12/29 15:40:19;;;;;;;0.00;0.00;;;;;;;;;;4887761;29;20060;-89
2023/12/29 15:43:02;;;;;;;0.00;0.00;;;;;;;;;;4944498;29;20071;-89
2023/12/29 15:45:34;;;;;;;0.00;0.00;;;;;;;;;;4941336;29;20360;-89
2023/12/29 15:48:18;;;;;;;0.10;0.10;;;;;;;;;;4963574;28;20078;-89
2023/12/29 15:50:48;;;;;;;0.10;0.10;;;;;;;;;;4957015;29;20047;-88
2023/12/29 15:53:29;;;;;;;0.10;0.10;;;;;;;;;;4958090;29;20047;-88
2023/12/29 15:56:18;;;;;;;0.10;0.10;;;;;;;;;;4960208;29;20046;-89
2023/12/29 15:58:58;;;;;;;0.10;0.10;;;;;;;;;;4959841;29;20102;-88
2023/12/29 16:01:32;;;;;;;0.00;0.00;;;;;;;;;;4949302;29;20051;-88
2023/12/29 16:06:47;;;;;;;0.10;0.10;;;;;;;;;;4974355;28;20077;-88
2023/12/29 16:09:20;;;;;;;0.28;0.28;;;;;;;;;;4968114;29;20059;-89
2023/12/29 16:11:57;;;;;;;0.10;0.10;;;;;;;;;;4946963;29;20118;-89
2023/12/29 16:14:39;;;;;;;0.05;0.05;;;;;;;;;;4934125;29;20145;-89
2023/12/29 16:17:09;;;;;;;0.10;0.10;;;;;;;;;;4949121;29;20327;-89
2023/12/29 16:19:50;;;;;;;0.10;0.10;;;;;;;;;;4950277;29;20051;-89
2023/12/29 16:22:31;;;;;;;0.10;0.10;;;;;;;;;;4941367;29;20055;-89
2023/12/29 16:25:15;;;;;;;0.10;0.10;;;;;;;;;;4952003;28;20047;-89
2023/12/29 16:27:47;;;;;;;0.10;0.10;;;;;;;;;;4953450;29;20051;-89
2023/12/29 16:30:16;;;;;;;0.00;0.00;;;;;;;;;;4975834;28;20050;-90
2023/12/29 16:33:03;;;;;;;0.10;0.10;;;;;;;;;;4976324;28;20039;-90
2023/12/29 16:35:33;;;;;;;0.10;0.10;;;;;;;;;;4976219;28;20073;-90
2023/12/29 16:38:17;;;;;;;0.10;0.10;;;;;;;;;;4962178;29;20051;-88
2023/12/29 16:40:54;;;;;;;0.00;0.00;;;;;;;;;;4963424;29;20321;-88
2023/12/29 16:43:23;;;;;;;0.20;0.20;;;;;;;;;;4961374;29;20118;-89
2023/12/29 16:48:35;;;;;;;0.10;0.10;;;;;;;;;;5017243;23;20063;-89
2023/12/29 16:51:17;;;;;;;0.00;0.00;;;;;;;;;;4985717;28;20065;-89
2023/12/29 16:53:51;;;;;;;0.10;0.10;;;;;;;;;;4968484;28;20146;-89
2023/12/29 16:56:35;;;;;;;0.20;0.20;;;;;;;;;;4971552;28;20054;-89
2023/12/29 16:59:21;;;;;;;0.10;0.10;;;;;;;;;;4987501;28;20468;-89
2023/12/29 17:02:07;;;;;;;0.10;0.10;;;;;;;;;;4972745;28;20079;-89
2023/12/29 17:05:12;;;;;;;0.08;0.08;;;;;;;;;;4981448;28;20061;-89
2023/12/29 17:07:54;;;;;;;0.10;0.10;;;;;;;;;;4973931;28;20039;-88
2023/12/29 17:10:39;;;;;;;0.10;0.10;;;;;;;;;;4971757;28;20046;-90
2023/12/29 17:13:22;;;;;;;0.10;0.10;;;;;;;;;;4972776;28;20054;-90
2023/12/29 17:16:04;;;;;;;0.10;0.10;;;;;;;;;;4973158;28;20035;-90
2023/12/29 17:18:38;;;;;;;0.20;0.20;;;;;;;;;;4969394;28;20095;-92
2023/12/29 17:21:11;;;;;;;0.20;0.20;;;;;;;;;;4968855;28;20061;-90
2023/12/29 17:23:43;;;;;;;0.10;0.10;;;;;;;;;;4968267;28;20356;-90
2023/12/29 17:26:14;;;;;;;0.10;0.10;;;;;;;;;;4968166;28;20155;-90
2023/12/29 17:28:47;;;;;;;0.10;0.10;;;;;;;;;;4968128;28;20352;-91
2023/12/29 17:31:18;;;;;;;0.10;0.10;;;;;;;;;;4970013;28;20050;-91
2023/12/29 17:33:47;;;;;;;0.00;0.00;;;;;;;;;;4966932;28;20093;-91
2023/12/29 17:36:17;;;;;;;0.10;0.10;;;;;;;;;;4985321;28;20064;-91
2023/12/29 17:38:46;;;;;;;0.10;0.10;;;;;;;;;;4967753;28;20050;-90
2023/12/29 17:41:17;;;;;;;0.10;0.10;;;;;;;;;;4968150;28;20145;-90
2023/12/29 17:43:45;;;;;;;0.10;0.10;;;;;;;;;;4967183;28;20057;-91
2023/12/29 17:46:14;;;;;;;0.10;0.10;;;;;;;;;;4969935;28;20057;-91
2023/12/29 17:48:55;;;;;;;0.20;0.20;;;;;;;;;;4967931;28;20129;-91
2023/12/29 17:51:37;;;;;;;0.10;0.10;;;;;;;;;;4981212;28;20436;-91
2023/12/29 17:54:07;;;;;;;0.00;0.00;;;;;;;;;;4971035;28;20120;-91
2023/12/29 17:56:38;;;;;;;0.10;0.10;;;;;;;;;;4986874;28;20068;-91
2023/12/29 17:59:08;;;;;;;0.63;0.20;;;;;;;;;;4968069;28;20143;-90
2023/12/29 18:01:38;;;;;;;0.08;0.08;;;;;;;;;;4968207;28;20159;-91
2023/12/29 18:04:07;;;;;;;0.10;0.10;;;;;;;;;;4970193;28;20058;-91
2023/12/29 18:06:36;;;;;;;0.00;0.00;;;;;;;;;;4973692;28;20070;-91
2023/12/29 18:09:13;;;;;;;0.00;0.00;;;;;;;;;;4973098;28;20057;-91
2023/12/29 18:11:42;;;;;;;0.10;0.10;;;;;;;;;;4967923;28;20146;-90
2023/12/29 18:14:10;;;;;;;0.10;0.10;;;;;;;;;;4967474;28;20101;-91
2023/12/29 18:16:40;;;;;;;0.10;0.10;;;;;;;;;;4966471;28;20079;-91
2023/12/29 18:19:10;;;;;;;0.15;0.15;;;;;;;;;;4968548;28;20099;-90
2023/12/29 18:21:49;;;;;;;0.10;0.10;;;;;;;;;;4991650;28;20049;-91
2023/12/29 18:24:17;;;;;;;0.30;0.30;;;;;;;;;;4977021;28;20098;-91
2023/12/29 18:26:50;;;;;;;0.10;0.10;;;;;;;;;;4994834;28;20038;-91
2023/12/29 18:29:30;;;;;;;0.10;0.10;;;;;;;;;;4979653;28;20110;-91
2023/12/29 18:32:11;;;;;;;0.10;0.10;;;;;;;;;;4978510;28;20045;-91
2023/12/29 18:34:49;;;;;;;0.10;0.10;;;;;;;;;;4979532;28;20043;-92
2023/12/29 18:37:20;;;;;;;1.35;0.80;;;;;;;;;;4967373;28;20133;-91
2023/12/29 18:39:51;;;;;;;0.10;0.10;;;;;;;;;;4966357;28;20059;-91
2023/12/29 18:42:27;;;;;;;0.10;0.10;;;;;;;;;;4970505;28;20132;-91
2023/12/29 18:44:59;;;;;;;0.10;0.10;;;;;;;;;;4966072;28;20051;-90
2023/12/29 18:47:30;;;;;;;0.10;0.10;;;;;;;;;;4967700;28;20055;-90
2023/12/29 18:49:58;;;;;;;0.10;0.10;;;;;;;;;;4969184;28;20035;-90
2023/12/29 18:52:28;;;;;;;0.10;0.10;;;;;;;;;;4964294;28;20121;-91
2023/12/29 18:54:59;;;;;;;0.10;0.10;;;;;;;;;;4965459;28;20420;-92
2023/12/29 18:57:44;;;;;;;0.10;0.10;;;;;;;;;;4982410;28;20077;-91
2023/12/29 19:00:13;;;;;;;0.30;0.30;;;;;;;;;;4966606;28;20057;-90
2023/12/29 19:02:41;;;;;;;0.10;0.10;;;;;;;;;;4967195;28;20053;-91
2023/12/29 19:05:08;;;;;;;0.10;0.10;;;;;;;;;;4968264;28;20427;-91
2023/12/29 19:07:39;;;;;;;0.10;0.10;;;;;;;;;;4971062;28;20058;-91
2023/12/29 19:10:09;;;;;;;0.80;0.80;;;;;;;;;;4972459;28;20054;-90
2023/12/29 19:12:49;;;;;;;0.13;0.13;;;;;;;;;;4968296;28;20392;-90
2023/12/29 19:15:22;;;;;;;0.20;0.20;;;;;;;;;;4982782;28;20062;-90
2023/12/29 19:17:51;;;;;;;0.35;0.35;;;;;;;;;;4962193;29;20055;-90
2023/12/29 19:20:22;;;;;;;0.10;0.10;;;;;;;;;;4963687;28;20055;-91
2023/12/29 19:22:51;;;;;;;0.10;0.10;;;;;;;;;;4963632;28;20124;-90
2023/12/29 19:25:21;;;;;;;0.15;0.15;;;;;;;;;;4964138;28;20062;-91
2023/12/29 19:27:51;;;;;;;0.20;0.20;;;;;;;;;;4967345;28;20082;-91
2023/12/29 19:30:23;;;;;;;0.20;0.20;;;;;;;;;;4986077;28;20082;-91
2023/12/29 19:32:52;;;;;;;0.10;0.10;;;;;;;;;;4968303;28;20047;-91
2023/12/29 19:35:20;;;;;;;0.10;0.10;;;;;;;;;;4968042;28;20059;-91
2023/12/29 19:37:51;;;;;;;0.10;0.10;;;;;;;;;;4970397;28;20059;-91
2023/12/29 19:40:21;;;;;;;0.13;0.13;;;;;;;;;;4964947;28;20456;-92
2023/12/29 19:42:57;;;;;;;0.10;0.10;;;;;;;;;;4966888;28;20451;-91
2023/12/29 19:45:30;;;;;;;0.10;0.10;;;;;;;;;;4966085;28;20403;-91
2023/12/29 19:48:06;;;;;;;0.10;0.10;;;;;;;;;;4967395;28;20114;-91
2023/12/29 19:50:40;;;;;;;0.20;0.20;;;;;;;;;;4982719;28;20053;-91
2023/12/29 19:53:10;;;;;;;0.10;0.10;;;;;;;;;;4967432;28;20047;-91
2023/12/29 19:55:40;;;;;;;0.10;0.10;;;;;;;;;;5323273;23;20327;-91
2023/12/29 19:58:13;;;;;;;0.20;0.20;;;;;;;;;;4985434;28;20054;-91
2023/12/29 20:00:43;;;;;;;0.10;0.10;;;;;;;;;;4977200;28;20191;-90
2023/12/29 20:03:26;;;;;;;0.10;0.10;;;;;;;;;;4990799;28;20051;-92
2023/12/29 20:05:58;;;;;;;0.20;0.20;;;;;;;;;;4972110;28;20051;-92
2023/12/29 20:08:39;;;;;;;0.10;0.10;;;;;;;;;;4965828;28;20102;-92
2023/12/29 20:11:11;;;;;;;0.10;0.10;;;;;;;;;;4966407;28;20062;-91
2023/12/29 20:13:44;;;;;;;0.10;0.10;;;;;;;;;;4967257;28;20076;-91
2023/12/29 20:16:25;;;;;;;0.10;0.10;;;;;;;;;;4968433;28;20103;-90
2023/12/29 20:18:58;;;;;;;0.10;0.10;;;;;;;;;;4967547;28;20055;-92
2023/12/29 20:21:27;;;;;;;0.10;0.10;;;;;;;;;;4972515;28;20050;-91
2023/12/29 20:24:09;;;;;;;0.10;0.10;;;;;;;;;;4969798;28;20050;-90
2023/12/29 20:26:48;;;;;;;0.10;0.10;;;;;;;;;;4985473;28;20167;-89
2023/12/29 20:29:19;;;;;;;2.13;0.77;;;;;;;;;;4969085;28;20061;-91
2023/12/29 20:31:59;;;;;;;7.25;1.85;;;;;;;;;;4969607;28;20062;-91
2023/12/29 20:34:35;;;;;;;0.13;0.13;;;;;;;;;;4977542;28;20062;-90
2023/12/29 20:37:06;;;;;;;0.10;0.10;;;;;;;;;;4974260;28;20481;-90
2023/12/29 20:39:34;;;;;;;0.10;0.10;;;;;;;;;;4974980;28;20082;-91
2023/12/29 20:42:13;;;;;;;0.10;0.10;;;;;;;;;;4976673;28;20057;-91
2023/12/29 20:44:49;;;;;;;0.10;0.10;;;;;;;;;;4980088;28;20054;-91
2023/12/29 20:47:56;;;;;;;0.10;0.10;;;;;;;;;;4981056;28;20047;-91
2023/12/29 20:50:39;;;;;;;0.20;0.20;;;;;;;;;;5079093;23;20057;-92
2023/12/29 20:53:36;;;;;;;0.10;0.10;;;;;;;;;;4985724;28;20102;-91
2023/12/29 20:56:10;;;;;;;0.05;0.05;;;;;;;;;;4981786;28;20062;-91
2023/12/29 20:58:56;;;;;;;0.15;0.15;;;;;;;;;;4994663;28;20045;-90
2023/12/29 21:01:29;;;;;;;0.10;0.10;;;;;;;;;;4981912;28;20085;-92
2023/12/29 21:04:18;;;;;;;0.10;0.10;;;;;;;;;;4976822;28;20050;-91
2023/12/29 21:07:18;;;;;;;0.10;0.10;;;;;;;;;;4979407;28;20085;-91
2023/12/29 21:10:17;;;;;;;0.10;0.10;;;;;;;;;;4970012;28;20062;-90
2023/12/29 21:13:08;;;;;;;0.10;0.10;;;;;;;;;;4977828;28;20057;-91
2023/12/29 21:16:03;;;;;;;0.10;0.10;;;;;;;;;;4916066;29;20056;-90
2023/12/29 21:18:57;;;;;;;0.10;0.10;;;;;;;;;;4914837;29;20104;-90
2023/12/29 22:35:32;;;;;;;0.10;0.10;;;;;;;;;;5013837;23;20165;-91
2023/12/29 23:38:23;;;;;;;;;;;;;;;;;;;;;
2023/12/29 23:41:17;;;;;;;0.15;0.15;;;;;;;;;;517999;26;20297;-90
2023/12/29 23:44:30;;;;;;;0.63;0.20;;;;;;;;;;4965481;28;20058;-91
2023/12/29 23:47:38;;;;;;;0.20;0.20;;;;;;;;;;4991238;28;20069;-90
2023/12/29 23:50:35;;;;;;;0.90;0.40;;;;;;;;;;4990314;28;20114;-90
2023/12/29 23:56:40;;;;;;;1.00;0.17;;;;;;;;;;4988840;28;20058;-89
